Frégate Island Airport

Jump to: basic info | weather | comments

Related pages: nearby airports | nearby navaids | notams | map

Basic information (top)

Codes: FRK FSSF
Location: lon -4.583000, lat 55.950001, elev 610 ft / 186 m msl
Status: small_airport
Scheduled airline service: no
Links: Wikipedia Mobile

Weather (top)

Current conditions for Seychelles International Airport 26nm (49km) WSW (rec'd 2014/10/22 06:00Z):

FSIA 220600Z 13012KT 9999 SCT019 30/24 Q1014 NOSIG

Airport forecast for Praslin Airport 22nm (41km) NW (rec'd 2012/02/23 12:00Z):

TAF FSPP 231130Z 2312/2324 35010KT 9999 SCT018 BKN250 
      TEMPO 2312/2316 -SHRA FEW014CB BKN016 
      TEMPO 2400/2418 -SHRA FEW014CB BKN016

Latest comments (top)

No comments yet for Frégate Island Airport

More... (top)

See also NOTAMs and nearby airports and navaids, or visit the Frégate Island Airport page at the main OurAirports website..